createdAt,value
2022-10-23T00:01:41.600Z,82.17
2022-10-23T00:04:14.499Z,81.78
2022-10-23T00:06:43.171Z,82.39
2022-10-23T00:09:12.366Z,83.11
2022-10-23T00:11:41.973Z,83.67
2022-10-23T00:14:09.427Z,83.06
2022-10-23T00:16:38.011Z,82.21
2022-10-23T00:19:08.306Z,82.08
2022-10-23T00:21:40.103Z,83.22
2022-10-23T00:26:37.921Z,83.39
2022-10-23T00:29:07.387Z,82.31
2022-10-23T00:31:37.400Z,81.95
2022-10-23T00:34:07.827Z,83.12
2022-10-23T00:36:36.611Z,84.27
2022-10-23T00:39:04.687Z,84.01
2022-10-23T00:41:32.554Z,82.77
2022-10-23T00:44:05.363Z,82.94
2022-10-23T00:46:33.500Z,83.35
2022-10-23T00:49:01.072Z,84.15
2022-10-23T00:51:33.595Z,84.29
2022-10-23T00:54:22.951Z,83.16
2022-10-23T00:56:49.035Z,83.12
2022-10-23T00:59:16.692Z,83.63
2022-10-23T01:01:46.106Z,84.69
2022-10-23T01:04:15.599Z,84.43
2022-10-23T01:06:59.030Z,83.28
2022-10-23T01:09:33.965Z,82.95
2022-10-23T01:12:26.111Z,82.54
2022-10-23T01:15:01.852Z,83.44
2022-10-23T01:17:44.416Z,82.75
2022-10-23T01:20:41.110Z,82.03
2022-10-23T01:23:23.818Z,82.48
2022-10-23T01:26:10.941Z,83.24
2022-10-23T01:29:19.567Z,84.01
2022-10-23T01:32:14.054Z,84.87
2022-10-23T01:34:56.465Z,83.25
2022-10-23T01:37:29.033Z,82.85
2022-10-23T01:40:02.430Z,82.99
2022-10-23T01:42:39.421Z,83.05
2022-10-23T01:45:09.411Z,83.80
2022-10-23T01:47:45.451Z,83.33
2022-10-23T01:50:14.996Z,81.57
2022-10-23T01:52:47.772Z,81.50
2022-10-23T01:55:16.354Z,81.86
2022-10-23T01:57:44.742Z,82.93
2022-10-23T02:00:14.544Z,83.38
2022-10-23T02:02:54.598Z,83.08
2022-10-23T02:05:29.117Z,81.53
2022-10-23T02:07:58.315Z,81.30
2022-10-23T02:10:33.584Z,81.67
2022-10-23T02:13:03.171Z,82.15
2022-10-23T02:15:38.286Z,82.66
2022-10-23T02:18:15.385Z,82.87
2022-10-23T02:20:55.267Z,81.18
2022-10-23T02:23:27.918Z,80.97
2022-10-23T02:26:01.819Z,81.62
2022-10-23T02:28:34.571Z,82.36
2022-10-23T02:31:02.082Z,83.44
2022-10-23T02:33:31.356Z,83.12
2022-10-23T02:35:59.633Z,81.96
2022-10-23T02:38:41.020Z,81.87
2022-10-23T02:41:43.364Z,82.16
2022-10-23T02:44:37.483Z,83.24
2022-10-23T02:47:30.736Z,84.84
2022-10-23T02:50:05.154Z,83.72
2022-10-23T02:52:32.303Z,82.54
2022-10-23T02:55:12.189Z,82.98
2022-10-23T02:58:15.042Z,83.48
2022-10-23T03:00:49.060Z,84.99
2022-10-23T03:03:19.678Z,86.00
2022-10-23T03:05:47.553Z,84.56
2022-10-23T03:08:15.209Z,83.71
2022-10-23T03:10:43.064Z,83.99
2022-10-23T03:13:11.164Z,84.97
2022-10-23T03:15:43.620Z,86.57
2022-10-23T03:18:16.812Z,85.51
2022-10-23T03:20:54.918Z,83.93
2022-10-23T03:23:22.988Z,84.22
2022-10-23T03:25:55.124Z,85.11
2022-10-23T03:28:32.346Z,87.10
2022-10-23T03:31:01.958Z,86.29
2022-10-23T03:33:30.737Z,85.09
2022-10-23T03:36:01.272Z,85.06
2022-10-23T03:38:29.236Z,85.81
2022-10-23T03:40:57.204Z,86.85
2022-10-23T03:43:24.660Z,85.91
2022-10-23T03:45:52.320Z,84.48
2022-10-23T03:48:20.085Z,84.34
2022-10-23T03:50:47.644Z,85.15
2022-10-23T03:53:16.434Z,86.65
2022-10-23T03:55:45.578Z,87.46
2022-10-23T03:58:13.810Z,85.77
2022-10-23T04:03:14.480Z,85.18
2022-10-23T04:05:42.430Z,86.27
2022-10-23T04:08:14.162Z,87.29
2022-10-23T04:10:49.112Z,86.56
2022-10-23T04:13:20.150Z,85.09
2022-10-23T04:15:49.660Z,85.35
2022-10-23T04:18:19.160Z,86.04
2022-10-23T04:20:48.881Z,87.35
2022-10-23T04:23:16.431Z,86.82
2022-10-23T04:25:45.358Z,85.47
2022-10-23T04:28:12.782Z,85.91
2022-10-23T04:30:41.895Z,86.74
2022-10-23T04:33:13.433Z,87.79
2022-10-23T04:35:41.035Z,87.00
2022-10-23T04:38:10.185Z,85.76
2022-10-23T04:40:37.846Z,85.92
2022-10-23T04:43:05.816Z,86.79
2022-10-23T04:45:39.111Z,87.96
2022-10-23T04:48:06.667Z,87.16
2022-10-23T04:51:08.355Z,85.46
2022-10-23T04:54:11.214Z,85.91
2022-10-23T04:56:50.961Z,87.49
2022-10-23T04:59:21.594Z,88.47
2022-10-23T05:01:49.485Z,87.30
2022-10-23T05:04:20.497Z,85.85
2022-10-23T05:07:06.487Z,86.05
2022-10-23T05:09:44.695Z,87.23
2022-10-23T05:12:42.160Z,88.52
2022-10-23T05:15:10.642Z,87.27
2022-10-23T05:17:39.407Z,86.00
2022-10-23T05:20:09.389Z,86.56
2022-10-23T05:22:37.209Z,87.88
2022-10-23T05:25:07.940Z,88.67
2022-10-23T05:27:35.398Z,87.59
2022-10-23T05:30:08.077Z,87.05
2022-10-23T05:32:37.586Z,87.39
2022-10-23T05:35:17.535Z,88.21
2022-10-23T05:37:49.291Z,88.73
2022-10-23T05:40:22.479Z,87.00
2022-10-23T05:42:55.721Z,86.47
2022-10-23T05:45:34.290Z,87.63
2022-10-23T05:48:35.003Z,88.63
2022-10-23T05:51:41.704Z,87.17
2022-10-23T05:54:33.226Z,86.61
2022-10-23T05:57:15.118Z,88.24
2022-10-23T05:59:51.077Z,89.56
2022-10-23T06:02:27.590Z,88.65
2022-10-23T06:05:00.129Z,87.69
2022-10-23T06:07:44.349Z,88.19
2022-10-23T06:10:12.648Z,88.81
2022-10-23T06:12:43.383Z,89.53
2022-10-23T06:15:13.910Z,88.24
2022-10-23T06:18:02.974Z,87.68
2022-10-23T06:20:34.934Z,88.32
2022-10-23T06:23:07.514Z,89.17
2022-10-23T06:25:56.270Z,87.75
2022-10-23T06:28:31.302Z,86.86
2022-10-23T06:30:58.965Z,86.85
2022-10-23T06:33:27.856Z,88.16
2022-10-23T06:35:56.337Z,88.31
2022-10-23T06:38:23.805Z,87.12
2022-10-23T06:40:55.858Z,87.02
2022-10-23T06:43:34.374Z,87.40
2022-10-23T06:46:17.601Z,88.63
2022-10-23T06:48:57.549Z,88.46
2022-10-23T06:51:29.517Z,87.58
2022-10-23T06:53:57.275Z,88.04
2022-10-23T06:56:51.155Z,89.36
2022-10-23T06:59:22.297Z,88.48
2022-10-23T07:04:20.388Z,87.88
2022-10-23T07:06:48.458Z,89.38
2022-10-23T07:09:16.425Z,88.76
2022-10-23T07:11:53.102Z,88.34
2022-10-23T07:14:29.675Z,88.13
2022-10-23T07:16:58.152Z,89.34
2022-10-23T07:19:28.271Z,89.30
2022-10-23T07:21:57.776Z,88.37
2022-10-23T07:24:55.138Z,87.08
2022-10-23T07:27:38.364Z,88.14
2022-10-23T07:30:08.171Z,89.46
2022-10-23T07:32:42.285Z,88.15
2022-10-23T07:35:28.485Z,88.33
2022-10-23T07:38:08.023Z,89.03
2022-10-23T07:40:38.452Z,88.80
2022-10-23T07:43:07.342Z,87.43
2022-10-23T07:45:35.419Z,87.51
2022-10-23T07:48:10.342Z,88.38
2022-10-23T07:51:01.564Z,89.36
2022-10-23T07:53:29.522Z,88.17
2022-10-23T07:56:03.376Z,87.60
2022-10-23T07:58:53.524Z,88.13
2022-10-23T08:01:42.526Z,89.04
2022-10-23T08:04:10.890Z,87.92
2022-10-23T08:06:45.179Z,86.87
2022-10-23T08:09:13.563Z,86.99
2022-10-23T08:11:51.869Z,87.74
2022-10-23T08:14:19.732Z,88.49
2022-10-23T08:16:51.252Z,87.09
2022-10-23T08:19:18.843Z,86.65
2022-10-23T08:21:47.428Z,87.43
2022-10-23T08:24:16.377Z,88.69
2022-10-23T08:26:49.719Z,87.92
2022-10-23T08:29:19.015Z,86.86
2022-10-23T08:31:48.426Z,87.42
2022-10-23T08:34:25.727Z,88.10
2022-10-23T08:36:54.292Z,87.82
2022-10-23T08:39:22.058Z,86.14
2022-10-23T08:42:19.977Z,86.94
2022-10-23T08:45:07.553Z,88.27
2022-10-23T08:47:47.750Z,87.31
2022-10-23T08:50:44.073Z,86.09
2022-10-23T08:53:31.364Z,86.19
2022-10-23T08:56:13.574Z,88.24
2022-10-23T08:58:41.213Z,87.21
2022-10-23T09:01:34.197Z,86.14
2022-10-23T09:04:02.872Z,86.42
2022-10-23T09:06:59.901Z,87.56
2022-10-23T09:09:55.238Z,86.97
2022-10-23T09:12:25.963Z,85.70
2022-10-23T09:15:30.902Z,85.89
2022-10-23T09:18:01.328Z,87.46
2022-10-23T09:20:33.811Z,86.44
2022-10-23T09:23:12.625Z,85.47
2022-10-23T09:25:42.054Z,85.50
2022-10-23T09:28:19.600Z,85.71
2022-10-23T09:30:47.689Z,85.78
2022-10-23T09:33:19.141Z,85.21
2022-10-23T09:35:55.019Z,85.21
2022-10-23T09:38:36.485Z,85.50
2022-10-23T09:41:13.375Z,85.89
2022-10-23T09:43:41.024Z,84.19
2022-10-23T09:46:11.651Z,84.00
2022-10-23T09:48:41.940Z,84.41
2022-10-23T09:51:17.629Z,85.76
2022-10-23T09:53:50.588Z,84.04
2022-10-23T09:56:33.439Z,83.52
2022-10-23T09:59:25.075Z,83.94
2022-10-23T10:01:58.981Z,84.69
2022-10-23T10:04:58.989Z,84.25
2022-10-23T10:07:32.144Z,83.42
2022-10-23T10:10:02.194Z,83.72
2022-10-23T10:12:37.537Z,84.23
2022-10-23T10:15:27.120Z,84.92
2022-10-23T10:18:03.987Z,83.65
2022-10-23T10:20:53.148Z,83.73
2022-10-23T10:23:27.184Z,84.00
2022-10-23T10:26:26.196Z,84.77
2022-10-23T10:29:07.239Z,83.92
2022-10-23T10:31:42.492Z,83.16
2022-10-23T10:34:15.487Z,83.97
2022-10-23T10:36:55.251Z,84.62
2022-10-23T10:39:39.461Z,83.71
2022-10-23T10:42:07.744Z,83.09
2022-10-23T10:44:43.530Z,82.88
2022-10-23T10:47:20.145Z,83.09
2022-10-23T10:50:16.183Z,84.02
2022-10-23T10:53:44.473Z,83.24
2022-10-23T10:56:14.366Z,83.17
2022-10-23T10:58:44.838Z,84.50
2022-10-23T11:01:35.010Z,85.65
2022-10-23T11:04:40.958Z,83.20
2022-10-23T11:07:11.893Z,82.72
2022-10-23T11:09:39.861Z,83.55
2022-10-23T11:12:12.540Z,83.76
2022-10-23T11:14:42.668Z,84.47
2022-10-23T11:17:13.496Z,83.33
2022-10-23T11:19:49.854Z,83.26
2022-10-23T11:22:38.632Z,84.45
2022-10-23T11:25:25.965Z,85.57
2022-10-23T11:28:05.265Z,83.57
2022-10-23T11:31:01.617Z,84.12
2022-10-23T11:33:51.288Z,84.90
2022-10-23T11:36:45.996Z,85.00
2022-10-23T11:39:20.834Z,83.61
2022-10-23T11:41:52.762Z,82.19
2022-10-23T11:44:40.346Z,82.77
2022-10-23T11:47:40.550Z,82.71
2022-10-23T11:50:08.915Z,82.58
2022-10-23T11:52:45.612Z,80.16
2022-10-23T11:55:28.195Z,79.98
2022-10-23T11:58:20.134Z,80.96
2022-10-23T12:01:19.294Z,80.81
2022-10-23T12:03:55.797Z,80.68
2022-10-23T12:06:46.808Z,79.62
2022-10-23T12:09:22.656Z,80.20
2022-10-23T12:12:03.208Z,80.85
2022-10-23T12:14:37.480Z,81.78
2022-10-23T12:17:28.957Z,80.15
2022-10-23T12:20:08.602Z,78.55
2022-10-23T12:22:51.624Z,78.36
2022-10-23T12:25:57.996Z,78.99
2022-10-23T12:28:54.836Z,79.63
2022-10-23T12:32:13.815Z,78.71
2022-10-23T12:42:26.085Z,78.07
2022-10-23T12:45:02.625Z,78.46
2022-10-23T12:47:30.432Z,77.10
2022-10-23T12:49:58.080Z,76.21
2022-10-23T12:52:25.815Z,75.35
2022-10-23T12:54:53.316Z,74.89
2022-10-23T12:57:30.768Z,75.77
2022-10-23T13:00:04.000Z,76.57
2022-10-23T13:02:32.769Z,75.17
2022-10-23T13:05:01.636Z,74.20
2022-10-23T13:07:31.139Z,74.59
2022-10-23T13:10:00.445Z,75.21
2022-10-23T13:12:35.097Z,76.38
2022-10-23T13:15:09.160Z,77.09
2022-10-23T13:17:44.518Z,77.28
2022-10-23T13:20:22.736Z,75.35
2022-10-23T13:22:59.325Z,74.69
2022-10-23T13:25:34.979Z,74.79
2022-10-23T13:28:14.088Z,75.78
2022-10-23T13:30:43.522Z,76.73
2022-10-23T13:33:24.454Z,77.22
2022-10-23T13:35:57.383Z,75.61
2022-10-23T13:38:32.441Z,75.13
2022-10-23T13:41:00.969Z,75.29
2022-10-23T13:43:28.519Z,76.01
2022-10-23T13:45:56.020Z,76.68
2022-10-23T13:48:24.951Z,77.53
2022-10-23T13:50:55.740Z,76.44
2022-10-23T13:53:23.154Z,75.08
2022-10-23T13:55:53.706Z,75.10
2022-10-23T13:58:23.830Z,75.27
2022-10-23T14:00:51.270Z,75.82
2022-10-23T14:03:20.779Z,76.73
2022-10-23T14:05:48.236Z,75.84
2022-10-23T14:08:15.689Z,74.40
2022-10-23T14:10:43.149Z,74.94
2022-10-23T14:13:10.598Z,75.61
2022-10-23T14:15:38.054Z,76.20
2022-10-23T14:18:08.190Z,77.78
2022-10-23T14:20:38.906Z,78.27
2022-10-23T14:23:06.471Z,76.74
2022-10-23T14:25:33.922Z,75.47
2022-10-23T14:28:01.388Z,76.07
2022-10-23T14:30:28.836Z,76.74
2022-10-23T14:32:56.394Z,77.13
2022-10-23T14:35:26.006Z,77.58
2022-10-23T14:37:55.913Z,78.45
2022-10-23T14:40:23.375Z,77.62
2022-10-23T14:42:50.933Z,76.52
2022-10-23T14:45:18.395Z,76.13
2022-10-23T14:47:46.608Z,77.02
2022-10-23T14:50:14.554Z,77.96
2022-10-23T14:52:41.986Z,78.40
2022-10-23T14:55:11.145Z,78.52
2022-10-23T14:57:39.156Z,76.92
2022-10-23T15:00:07.592Z,76.55
2022-10-23T15:02:37.176Z,77.07
2022-10-23T15:05:06.650Z,78.16
2022-10-23T15:07:33.998Z,79.32
2022-10-23T15:10:01.565Z,78.52
2022-10-23T15:12:31.990Z,77.36
2022-10-23T15:14:59.447Z,77.75
2022-10-23T15:17:26.901Z,78.32
2022-10-23T15:20:04.520Z,78.83
2022-10-23T15:22:31.954Z,79.50
2022-10-23T15:24:59.406Z,78.35
2022-10-23T15:27:26.973Z,76.78
2022-10-23T15:29:54.532Z,76.70
2022-10-23T15:32:22.195Z,77.27
2022-10-23T15:34:50.158Z,78.62
2022-10-23T15:37:20.488Z,79.32
2022-10-23T15:39:48.046Z,80.09
2022-10-23T15:42:15.605Z,79.15
2022-10-23T15:44:43.076Z,77.23
2022-10-23T15:47:10.724Z,76.75
2022-10-23T15:49:38.625Z,77.02
2022-10-23T15:52:06.215Z,77.93
2022-10-23T15:54:33.816Z,78.83
2022-10-23T15:57:01.758Z,79.97
2022-10-23T15:59:29.744Z,79.56
2022-10-23T16:01:57.489Z,77.70
2022-10-23T16:04:25.080Z,76.86
2022-10-23T16:06:53.631Z,77.23
2022-10-23T16:09:21.737Z,78.16
2022-10-23T16:11:50.660Z,79.11
2022-10-23T16:14:18.275Z,79.94
2022-10-23T16:16:45.848Z,79.79
2022-10-23T16:19:13.500Z,78.34
2022-10-23T16:21:41.574Z,78.12
2022-10-23T16:24:09.566Z,78.96
2022-10-23T16:26:37.205Z,80.09
2022-10-23T16:29:10.750Z,81.12
2022-10-23T16:31:39.688Z,80.88
2022-10-23T16:34:07.469Z,79.77
2022-10-23T16:36:35.125Z,79.57
2022-10-23T16:39:21.347Z,79.93
2022-10-23T16:42:08.020Z,81.02
2022-10-23T16:45:05.383Z,81.73
2022-10-23T16:47:33.450Z,81.06
2022-10-23T16:50:01.040Z,79.81
2022-10-23T16:52:29.952Z,80.15
2022-10-23T16:54:57.458Z,80.92
2022-10-23T16:57:27.684Z,81.88
2022-10-23T16:59:55.142Z,83.22
2022-10-23T17:02:22.747Z,82.33
2022-10-23T17:04:50.365Z,80.66
2022-10-23T17:07:17.911Z,80.70
2022-10-23T17:09:47.000Z,81.40
2022-10-23T17:12:14.945Z,82.05
2022-10-23T17:14:42.851Z,81.08
2022-10-23T17:17:10.419Z,79.88
2022-10-23T17:19:46.532Z,79.44
2022-10-23T17:22:14.845Z,80.40
2022-10-23T17:24:44.150Z,81.16
2022-10-23T17:27:13.756Z,81.20
2022-10-23T17:29:43.473Z,79.60
2022-10-23T17:32:11.154Z,79.54
2022-10-23T17:34:38.682Z,79.93
2022-10-23T17:37:06.137Z,80.69
2022-10-23T17:39:33.490Z,81.17
2022-10-23T17:42:00.843Z,79.65
2022-10-23T17:44:29.529Z,79.03
2022-10-23T17:46:56.988Z,79.39
2022-10-23T17:49:24.653Z,80.40
2022-10-23T17:51:57.029Z,81.26
2022-10-23T17:54:25.503Z,81.41
2022-10-23T17:56:53.409Z,79.89
2022-10-23T17:59:20.930Z,79.70
2022-10-23T18:01:48.793Z,80.27
2022-10-23T18:04:19.782Z,82.19
2022-10-23T18:06:49.858Z,82.83
2022-10-23T18:09:18.335Z,81.89
2022-10-23T18:11:48.748Z,80.48
2022-10-23T18:14:17.485Z,80.51
2022-10-23T18:16:46.285Z,81.04
2022-10-23T18:19:15.043Z,82.16
2022-10-23T18:21:42.478Z,82.99
2022-10-23T18:24:10.662Z,81.97
2022-10-23T18:26:39.644Z,79.74
2022-10-23T18:29:10.482Z,79.44
2022-10-23T18:31:38.450Z,79.97
2022-10-23T18:34:09.370Z,80.68
2022-10-23T18:36:38.997Z,81.71
2022-10-23T18:39:07.224Z,81.32
2022-10-23T18:41:39.548Z,79.37
2022-10-23T18:44:07.103Z,78.90
2022-10-23T18:46:34.974Z,79.53
2022-10-23T18:49:02.740Z,80.67
2022-10-23T18:51:31.774Z,81.61
2022-10-23T18:54:01.091Z,82.28
2022-10-23T18:56:28.790Z,80.63
2022-10-23T18:58:57.784Z,79.34
2022-10-23T19:01:27.293Z,79.56
2022-10-23T19:06:23.956Z,81.41
2022-10-23T19:08:51.502Z,82.17
2022-10-23T19:11:20.391Z,80.67
2022-10-23T19:13:47.951Z,79.20
2022-10-23T19:16:24.628Z,79.46
2022-10-23T19:19:04.290Z,80.15
2022-10-23T19:21:35.379Z,80.89
2022-10-23T19:24:05.435Z,80.41
2022-10-23T19:26:32.898Z,78.68
2022-10-23T19:31:52.476Z,79.17
2022-10-23T19:34:21.776Z,79.60
2022-10-23T19:36:50.667Z,80.38
2022-10-23T19:39:19.149Z,79.36
2022-10-23T19:41:46.949Z,77.48
2022-10-23T19:44:15.596Z,77.28
2022-10-23T19:46:43.267Z,77.47
2022-10-23T19:49:10.926Z,78.21
2022-10-23T19:51:38.697Z,79.35
2022-10-23T19:54:06.454Z,79.20
2022-10-23T19:56:33.912Z,77.55
2022-10-23T19:59:01.371Z,77.52
2022-10-23T20:01:29.135Z,77.78
2022-10-23T20:03:56.904Z,78.59
2022-10-23T20:06:29.569Z,79.18
2022-10-23T20:08:57.539Z,80.07
2022-10-23T20:11:29.812Z,79.21
2022-10-23T20:13:57.373Z,77.44
2022-10-23T20:16:35.659Z,77.03
2022-10-23T20:19:07.414Z,77.42
2022-10-23T20:21:39.196Z,78.34
2022-10-23T20:24:07.469Z,79.54
2022-10-23T20:26:35.028Z,80.66
2022-10-23T20:29:02.485Z,79.97
2022-10-23T20:31:29.843Z,78.52
2022-10-23T20:33:57.613Z,78.46
2022-10-23T20:36:29.056Z,79.02
2022-10-23T20:38:57.025Z,79.80
2022-10-23T20:41:27.452Z,81.01
2022-10-23T20:43:56.405Z,80.41
2022-10-23T20:46:24.109Z,79.25
2022-10-23T20:48:51.787Z,78.88
2022-10-23T20:51:20.849Z,79.64
2022-10-23T20:53:48.626Z,80.46
2022-10-23T20:56:21.205Z,81.57
2022-10-23T20:58:48.556Z,80.29
2022-10-23T21:01:17.298Z,78.92
2022-10-23T21:03:45.319Z,79.20
2022-10-23T21:06:13.949Z,79.86
2022-10-23T21:08:41.559Z,80.56
2022-10-23T21:11:11.580Z,81.23
2022-10-23T21:13:39.082Z,79.64
2022-10-23T21:16:24.932Z,78.71
2022-10-23T21:18:58.215Z,79.11
2022-10-23T21:21:26.288Z,79.80
2022-10-23T21:23:54.697Z,80.85
2022-10-23T21:26:23.353Z,81.58
2022-10-23T21:28:56.162Z,80.83
2022-10-23T21:31:40.181Z,79.22
2022-10-23T21:34:07.752Z,79.01
2022-10-23T21:36:48.225Z,79.78
2022-10-23T21:39:22.520Z,80.69
2022-10-23T21:41:49.778Z,81.65
2022-10-23T21:44:17.127Z,80.92
2022-10-23T21:46:44.786Z,79.06
2022-10-23T21:49:12.142Z,78.61
2022-10-23T21:51:39.702Z,79.00
2022-10-23T21:54:08.603Z,79.70
2022-10-23T21:56:47.189Z,80.53
2022-10-23T21:59:16.693Z,81.57
2022-10-23T22:01:45.659Z,80.88
2022-10-23T22:04:17.672Z,78.74
2022-10-23T22:06:45.741Z,77.77
2022-10-23T22:09:14.919Z,77.97
2022-10-23T22:11:42.509Z,78.58
2022-10-23T22:14:09.862Z,79.59
2022-10-23T22:16:37.335Z,80.89
2022-10-23T22:19:04.770Z,80.48
2022-10-23T22:21:32.224Z,78.76
2022-10-23T22:24:00.567Z,78.34
2022-10-23T22:26:29.595Z,78.63
2022-10-23T22:28:59.081Z,79.51
2022-10-23T22:31:29.600Z,80.01
2022-10-23T22:33:57.088Z,81.13
2022-10-23T22:36:24.929Z,80.59
2022-10-23T22:38:52.622Z,78.83
2022-10-23T22:41:20.386Z,77.95
2022-10-23T22:43:47.842Z,78.17
2022-10-23T22:46:17.513Z,78.84
2022-10-23T22:48:45.313Z,79.94
2022-10-23T22:51:14.098Z,80.82
2022-10-23T22:53:41.556Z,80.38
2022-10-23T22:56:23.450Z,78.74
2022-10-23T22:58:51.220Z,77.98
2022-10-23T23:01:27.263Z,78.15
2022-10-23T23:03:55.257Z,78.72
2022-10-23T23:06:24.238Z,79.30
2022-10-23T23:08:51.799Z,79.72
2022-10-23T23:11:20.440Z,79.99
2022-10-23T23:13:48.061Z,78.98
2022-10-23T23:16:25.549Z,78.40
2022-10-23T23:18:52.993Z,78.94
2022-10-23T23:21:20.650Z,79.47
2022-10-23T23:23:48.312Z,80.24
2022-10-23T23:26:16.075Z,80.81
2022-10-23T23:28:43.544Z,80.80
2022-10-23T23:31:20.735Z,79.26
2022-10-23T23:33:48.490Z,78.37
2022-10-23T23:36:19.523Z,78.43
2022-10-23T23:38:46.985Z,79.30
2022-10-23T23:41:15.357Z,79.72
2022-10-23T23:43:43.530Z,81.06
2022-10-23T23:46:10.997Z,80.83
2022-10-23T23:48:38.547Z,79.17
2022-10-23T23:51:06.588Z,78.55
2022-10-23T23:53:34.075Z,78.78
2022-10-23T23:56:01.532Z,79.24
2022-10-23T23:58:28.992Z,79.90
